Etusivu
METAR-TAF:

METAR-TAF

Lentoasemat :

Saarbrücken, Saksa

Leveyspiiri: 49-13N, Pituuspiiri: 007-07E, korkeus merenpinnasta: 322 m

Tämänhetkinen sää

Tämä raportti tehtiin 19 minuuttia sitten, kello 15.50 UTC
Tuuli 12 kn koillisesta
Lämpötila 14°C
Kosteus 33%
Ilmanpaine 1030 hPa
Näkyvyys 10 km tai enemmän
ei pilviä alle 1500 m:ssä eikä cumulonimbus-pilviä

METAR: EDDR 211550Z 05012KT CAVOK 14/M02 Q1030

Aika: 17:09 (16:09 UTC)

Sääennuste

Tämä raportti tehtiin 5 tuntia ja 9 minuuttia sitten, kello 11.00 UTC
Ennuste voimassa 21. päivästä klo 12 UTC - 22. päivään klo 12 UTC
Tuuli 10 kn idästä/koillisesta
Näkyvyys 10 km tai enemmän
ei pilviä alle 1500 m:ssä eikä cumulonimbus-pilviä
Tulossa
21. päivästä klo 16 UTC - 21. päivään klo 18 UTC
Tuuli 5 kn koillisesta
Tulossa
22. päivästä klo 10 UTC - 22. päivään klo 12 UTC
Tuuli 5 kn idästä/kaakosta

TAF: EDDR 211100Z 2112/2212 07010KT CAVOK BECMG 2116/2118 05005KT BECMG 2210/2212 11005KT

Säähavainnot ja -ennusteet yli 4000 lentoasemalta (METAR- ja TAF-raportit).

Käytössä olevat sääasemat on merkitty karttaan keltaisilla ja punaisilla pisteillä.

Aseta hiiri pisteen päälle nähdäksesi sääaseman nimen.

Klikkaa sitten nähdäksesi säähavainnot ja -ennusteet.

Kartan vaihtaminen: klikkaa mustalla rastilla varustettuja vihreitä pisteitä, niin voit zoomata sisään; viivalla varustettua vihreää pistettä, niin voit zoomata ulos tai vihreitä nuolia, niin pääset viereisille kartoille.


METAR-TAF: